Time;durP1;ratioP1;P1;durP2;ratioP2;P2;SDS_P1;SDS_P2;PMS_P1;PMS_P2;Temp;Humidity;BMP_temperature;BMP_pressure;BME280_temperature;BME280_humidity;BME280_pressure;Samples;Min_cycle;Max_cycle;Signal;HPM_P1;HPM_P2
2021/12/12 00:02:19;;;;;;;4.17;2.80;;;3.00;99.90;;;;;;5049068;28;20454;-72
2021/12/12 00:04:47;;;;;;;5.40;3.17;;;3.00;99.90;;;;;;5049899;28;20838;-73
2021/12/12 00:07:20;;;;;;;12.87;4.20;;;3.00;99.90;;;;;;5031361;28;20871;-72
2021/12/12 00:09:49;;;;;;;4.20;2.80;;;3.00;99.90;;;;;;5023746;28;20466;-71
2021/12/12 00:12:22;;;;;;;5.60;3.03;;;3.00;99.90;;;;;;5009209;28;20456;-72
2021/12/12 00:14:48;;;;;;;6.17;3.43;;;3.10;99.90;;;;;;4994805;28;20488;-71
2021/12/12 00:17:15;;;;;;;11.60;4.83;;;3.10;99.90;;;;;;4998134;28;20447;-71
2021/12/12 00:19:40;;;;;;;6.77;4.20;;;3.10;99.90;;;;;;5015630;28;20469;-71
2021/12/12 00:22:13;;;;;;;7.30;5.03;;;3.10;99.90;;;;;;5014451;28;20443;-72
2021/12/12 00:24:39;;;;;;;6.30;4.37;;;3.10;99.90;;;;;;5026224;28;20225;-71
2021/12/12 00:27:06;;;;;;;6.03;3.90;;;3.10;99.90;;;;;;5015224;28;20521;-75
2021/12/12 00:29:32;;;;;;;4.97;3.40;;;3.10;99.90;;;;;;5015771;28;20459;-72
2021/12/12 00:32:01;;;;;;;13.80;4.13;;;3.10;99.90;;;;;;5032745;28;20466;-73
2021/12/12 00:34:30;;;;;;;6.03;4.53;;;3.10;99.90;;;;;;5033085;28;20232;-71
2021/12/12 00:36:56;;;;;;;6.07;4.37;;;3.10;99.90;;;;;;5030763;28;20466;-72
2021/12/12 00:39:26;;;;;;;8.00;4.67;;;3.10;99.90;;;;;;5015224;28;20462;-72
2021/12/12 00:41:58;;;;;;;6.63;4.83;;;3.10;99.90;;;;;;5012250;28;20475;-72
2021/12/12 00:44:26;;;;;;;15.13;4.43;;;3.10;99.90;;;;;;5011868;28;20490;-71
2021/12/12 00:46:55;;;;;;;5.83;3.93;;;3.10;99.90;;;;;;5011050;28;20534;-71
2021/12/12 00:49:21;;;;;;;7.57;4.30;;;3.10;99.90;;;;;;5012308;28;20452;-72
2021/12/12 00:51:49;;;;;;;6.73;4.53;;;3.00;99.90;;;;;;5012038;28;20459;-71
2021/12/12 00:54:16;;;;;;;5.43;3.67;;;3.00;99.90;;;;;;5011690;28;20248;-72
2021/12/12 00:56:43;;;;;;;10.43;3.13;;;3.00;99.90;;;;;;4995595;28;20471;-71
2021/12/12 00:59:09;;;;;;;3.67;3.17;;;2.90;99.90;;;;;;5011426;28;20555;-73
2021/12/12 01:01:41;;;;;;;6.10;3.23;;;2.90;99.90;;;;;;5012135;28;20460;-74
2021/12/12 01:04:32;;;;;;;7.60;3.43;;;2.90;99.90;;;;;;5011632;28;20467;-71
2021/12/12 01:07:04;;;;;;;7.30;3.47;;;2.90;99.90;;;;;;5011345;28;20460;-72
2021/12/12 01:09:38;;;;;;;5.20;3.60;;;3.00;99.90;;;;;;5016678;28;20507;-73
2021/12/12 01:12:07;;;;;;;6.13;3.60;;;3.00;99.90;;;;;;5034193;28;20463;-72
2021/12/12 01:14:39;;;;;;;7.10;4.60;;;3.00;99.90;;;;;;5034300;28;20489;-71
2021/12/12 01:17:14;;;;;;;5.20;4.30;;;3.10;99.90;;;;;;5051381;28;20481;-72
2021/12/12 01:19:51;;;;;;;6.67;4.50;;;3.00;99.90;;;;;;5035364;28;20466;-73
2021/12/12 01:22:32;;;;;;;7.23;4.40;;;3.00;99.90;;;;;;5017658;28;20799;-72
2021/12/12 01:25:06;;;;;;;3.43;2.83;;;3.00;99.90;;;;;;5013690;28;20966;-71
2021/12/12 01:27:32;;;;;;;9.20;4.00;;;3.00;99.90;;;;;;5014727;28;20451;-72
2021/12/12 01:29:58;;;;;;;9.73;4.30;;;3.00;99.90;;;;;;5014188;28;20987;-72
2021/12/12 01:32:31;;;;;;;11.33;4.37;;;3.10;99.90;;;;;;5014474;28;20817;-73
2021/12/12 01:34:58;;;;;;;6.13;3.27;;;3.10;99.90;;;;;;5030456;28;20220;-72
2021/12/12 01:40:09;;;;;;;4.77;3.17;;;3.10;99.90;;;;;;5031224;28;20444;-72
2021/12/12 01:42:53;;;;;;;7.00;3.87;;;3.10;99.90;;;;;;5030964;28;20454;-75
2021/12/12 01:45:25;;;;;;;5.13;3.30;;;3.10;99.90;;;;;;5013930;28;20527;-71
2021/12/12 01:47:58;;;;;;;5.37;3.60;;;3.10;99.90;;;;;;5030559;28;20515;-71
2021/12/12 01:50:35;;;;;;;4.17;2.97;;;3.20;99.90;;;;;;5014172;28;20463;-73
2021/12/12 01:53:04;;;;;;;4.30;3.00;;;3.10;99.90;;;;;;5028555;28;20510;-72
2021/12/12 01:55:54;;;;;;;5.83;3.70;;;3.10;99.90;;;;;;5014492;28;20792;-71
2021/12/12 01:58:25;;;;;;;4.90;3.37;;;3.10;99.90;;;;;;5003348;28;20986;-71
2021/12/12 02:00:53;;;;;;;5.33;3.90;;;3.10;99.90;;;;;;5014482;28;20509;-72
2021/12/12 02:03:22;;;;;;;6.77;3.50;;;3.20;99.90;;;;;;4997461;28;20456;-72
2021/12/12 02:05:50;;;;;;;8.90;3.50;;;3.20;99.90;;;;;;5013663;28;20451;-71
2021/12/12 02:08:19;;;;;;;3.90;3.10;;;3.20;99.90;;;;;;5013131;28;20455;-71
2021/12/12 02:11:00;;;;;;;8.83;4.77;;;3.30;99.90;;;;;;5040708;28;20480;-72
2021/12/12 02:13:27;;;;;;;4.87;3.30;;;3.20;99.90;;;;;;5013252;28;20471;-71
2021/12/12 02:15:56;;;;;;;4.20;3.40;;;3.20;99.90;;;;;;5009507;28;20462;-71
2021/12/12 02:18:31;;;;;;;15.10;3.20;;;3.20;99.90;;;;;;5014169;28;20451;-71
2021/12/12 02:21:11;;;;;;;5.17;3.70;;;3.20;99.90;;;;;;5013730;28;20528;-72
2021/12/12 02:35:05;;;;;;;5.43;3.17;;;3.20;99.90;;;;;;5036336;28;20474;-71
2021/12/12 02:37:30;;;;;;;9.20;4.30;;;3.30;99.90;;;;;;5030017;28;20451;-74
2021/12/12 02:39:56;;;;;;;9.70;5.50;;;3.30;99.90;;;;;;5012834;28;20486;-72
2021/12/12 02:42:23;;;;;;;6.93;4.00;;;3.30;99.90;;;;;;5012859;28;20474;-73
2021/12/12 02:44:54;;;;;;;7.60;4.37;;;3.30;99.90;;;;;;5008877;28;20527;-72
2021/12/12 02:47:24;;;;;;;9.07;3.67;;;3.30;99.90;;;;;;5013227;28;20454;-72
2021/12/12 02:52:20;;;;;;;8.17;3.77;;;3.30;99.90;;;;;;5012180;28;21326;-72
2021/12/12 02:54:46;;;;;;;10.40;4.47;;;3.30;99.90;;;;;;5013094;28;20840;-72
2021/12/12 02:57:15;;;;;;;5.10;3.33;;;3.30;99.90;;;;;;5026464;28;20456;-72
2021/12/12 02:59:46;;;;;;;5.80;3.53;;;3.30;99.90;;;;;;5030647;28;20240;-72
2021/12/12 03:02:15;;;;;;;8.97;4.73;;;3.40;99.90;;;;;;5012438;28;20538;-72
2021/12/12 03:04:41;;;;;;;7.77;3.83;;;3.40;99.90;;;;;;5001975;28;20451;-71
2021/12/12 03:07:10;;;;;;;9.33;3.70;;;3.40;99.90;;;;;;5029743;28;20455;-70
2021/12/12 03:09:54;;;;;;;10.00;4.10;;;3.30;99.90;;;;;;5012644;28;20928;-72
2021/12/12 03:12:30;;;;;;;4.17;3.10;;;3.30;99.90;;;;;;5010529;28;20460;-72
2021/12/12 03:15:03;;;;;;;5.87;3.47;;;3.30;99.90;;;;;;5009376;28;20990;-72
2021/12/12 03:17:29;;;;;;;5.87;3.00;;;3.30;99.90;;;;;;5030627;28;20466;-73
2021/12/12 03:19:59;;;;;;;7.50;3.60;;;3.30;99.90;;;;;;5019190;28;20455;-71
2021/12/12 03:22:29;;;;;;;7.10;2.83;;;3.40;99.90;;;;;;5014488;28;20223;-73
2021/12/12 03:24:55;;;;;;;8.70;3.33;;;3.40;99.90;;;;;;5011503;28;20622;-72
2021/12/12 03:27:23;;;;;;;3.07;2.67;;;3.40;99.90;;;;;;5012419;28;20515;-72
2021/12/12 03:29:50;;;;;;;3.57;3.00;;;3.40;99.90;;;;;;5012800;28;20468;-73
2021/12/12 03:32:20;;;;;;;5.57;3.77;;;3.40;99.90;;;;;;5028597;28;20439;-71
2021/12/12 03:34:49;;;;;;;4.50;2.93;;;3.40;99.90;;;;;;5012808;28;20472;-72
2021/12/12 03:37:18;;;;;;;8.33;3.43;;;3.40;99.90;;;;;;5018488;28;20455;-72
2021/12/12 03:39:47;;;;;;;11.70;4.07;;;3.40;99.90;;;;;;5011753;28;20475;-71
2021/12/12 03:42:17;;;;;;;4.33;2.97;;;3.40;99.90;;;;;;4990906;28;20446;-71
2021/12/12 03:44:44;;;;;;;6.90;3.37;;;3.40;99.90;;;;;;5030683;28;20522;-74
2021/12/12 03:47:20;;;;;;;9.47;3.40;;;3.40;99.90;;;;;;5012135;28;20464;-70
2021/12/12 03:49:46;;;;;;;5.13;4.00;;;3.40;99.90;;;;;;5011738;28;20470;-74
2021/12/12 03:52:15;;;;;;;4.63;3.83;;;3.40;99.90;;;;;;5011861;28;20457;-72
2021/12/12 03:54:41;;;;;;;7.87;3.97;;;3.40;99.90;;;;;;5012198;28;20475;-71
2021/12/12 03:57:07;;;;;;;7.60;3.30;;;3.40;99.90;;;;;;5011942;28;20458;-73
2021/12/12 03:59:33;;;;;;;7.80;4.13;;;3.40;99.90;;;;;;5029145;28;20225;-72
2021/12/12 04:01:59;;;;;;;6.50;3.80;;;3.40;99.90;;;;;;5011064;28;20463;-72
2021/12/12 04:04:36;;;;;;;5.23;3.10;;;3.40;99.90;;;;;;5012073;28;20459;-71
2021/12/12 04:07:14;;;;;;;5.40;3.63;;;3.40;99.90;;;;;;5005957;28;20985;-71
2021/12/12 04:09:40;;;;;;;4.83;3.40;;;3.40;99.90;;;;;;5013351;28;20462;-71
2021/12/12 04:12:09;;;;;;;5.73;3.73;;;3.40;99.90;;;;;;5011131;28;20554;-72
2021/12/12 04:14:36;;;;;;;7.47;3.43;;;3.40;99.90;;;;;;5011279;28;20467;-74
2021/12/12 04:17:06;;;;;;;7.90;3.00;;;3.40;99.90;;;;;;5029333;28;20455;-73
2021/12/12 04:19:32;;;;;;;8.30;3.53;;;3.40;99.90;;;;;;5030027;28;20535;-72
2021/12/12 04:22:00;;;;;;;5.93;3.87;;;3.40;99.90;;;;;;5011771;28;20886;-72
2021/12/12 04:24:30;;;;;;;5.20;3.60;;;3.40;99.90;;;;;;5025268;28;20225;-71
2021/12/12 04:26:57;;;;;;;9.83;3.50;;;3.40;99.90;;;;;;5016862;28;20503;-72
2021/12/12 04:29:28;;;;;;;4.13;3.20;;;3.40;99.90;;;;;;5012489;28;20830;-73
2021/12/12 04:31:58;;;;;;;9.03;3.70;;;3.40;99.90;;;;;;5011203;28;20470;-72
2021/12/12 04:34:26;;;;;;;5.90;3.77;;;3.40;99.90;;;;;;5011931;28;20459;-71
2021/12/12 04:36:53;;;;;;;5.03;3.47;;;3.40;99.90;;;;;;5029544;28;20851;-73
2021/12/12 04:39:25;;;;;;;5.13;3.20;;;3.40;99.90;;;;;;5029644;28;20479;-72
2021/12/12 04:42:01;;;;;;;4.60;3.10;;;3.40;99.90;;;;;;5028190;28;20455;-72
2021/12/12 04:44:31;;;;;;;5.63;3.10;;;3.40;99.90;;;;;;4995719;28;20458;-72
2021/12/12 04:50:13;;;;;;;10.37;4.40;;;3.40;99.90;;;;;;5029186;28;20521;-71
2021/12/12 04:52:50;;;;;;;6.00;3.77;;;3.40;99.90;;;;;;5029559;28;20459;-72
2021/12/12 04:55:29;;;;;;;5.27;3.83;;;3.40;99.90;;;;;;5007976;28;20531;-72
2021/12/12 04:58:20;;;;;;;8.67;3.97;;;3.40;99.90;;;;;;5008146;28;20448;-72
2021/12/12 05:00:53;;;;;;;7.80;4.70;;;3.40;99.90;;;;;;5012393;28;20809;-72
2021/12/12 05:03:27;;;;;;;7.67;3.50;;;3.40;99.90;;;;;;5014640;28;20447;-72
2021/12/12 05:05:56;;;;;;;4.80;3.40;;;3.40;99.90;;;;;;5012034;28;20477;-73
2021/12/12 05:08:39;;;;;;;6.40;3.17;;;3.40;99.90;;;;;;5032820;28;20522;-72
2021/12/12 05:11:22;;;;;;;9.57;3.17;;;3.40;99.90;;;;;;5014954;28;20455;-74
2021/12/12 05:13:55;;;;;;;4.97;3.77;;;3.30;99.90;;;;;;5031745;28;20479;-71
2021/12/12 05:16:38;;;;;;;4.67;4.03;;;3.30;99.90;;;;;;5014461;28;20479;-73
2021/12/12 05:19:12;;;;;;;4.27;3.00;;;3.30;99.90;;;;;;5015025;28;20467;-72
2021/12/12 05:21:43;;;;;;;3.10;2.80;;;3.20;99.90;;;;;;5015169;28;20462;-71
2021/12/12 05:24:11;;;;;;;3.93;3.07;;;3.20;99.90;;;;;;5035305;28;20459;-71
2021/12/12 05:26:44;;;;;;;4.77;3.23;;;3.20;99.90;;;;;;5033290;28;20464;-72
2021/12/12 05:29:21;;;;;;;5.13;3.47;;;3.20;99.90;;;;;;5014547;28;20454;-72
2021/12/12 05:31:50;;;;;;;3.50;3.17;;;3.20;99.90;;;;;;5032470;28;20458;-71
2021/12/12 05:34:18;;;;;;;5.10;3.50;;;3.30;99.90;;;;;;5030645;28;20463;-72
2021/12/12 05:36:45;;;;;;;4.57;3.00;;;3.30;99.90;;;;;;5014362;28;20978;-71
2021/12/12 05:39:11;;;;;;;7.20;3.60;;;3.30;99.90;;;;;;5014192;28;20530;-72
2021/12/12 05:41:37;;;;;;;6.70;4.43;;;3.30;99.90;;;;;;5014226;28;20486;-72
2021/12/12 05:44:05;;;;;;;4.37;3.60;;;3.30;99.90;;;;;;5014224;28;20447;-72
2021/12/12 05:46:30;;;;;;;4.27;3.27;;;3.40;99.90;;;;;;5014747;28;20447;-73
2021/12/12 05:48:59;;;;;;;5.37;3.43;;;3.40;99.90;;;;;;5031803;28;20455;-73
2021/12/12 05:51:26;;;;;;;8.30;4.23;;;3.40;99.90;;;;;;5013790;28;20258;-73
2021/12/12 05:53:53;;;;;;;6.93;4.13;;;3.40;99.90;;;;;;5013948;28;20474;-72
2021/12/12 05:56:24;;;;;;;7.93;4.90;;;3.40;99.90;;;;;;5013911;28;20459;-72
2021/12/12 05:58:52;;;;;;;11.53;5.20;;;3.40;99.90;;;;;;5023143;28;20463;-72
2021/12/12 06:01:19;;;;;;;12.33;6.30;;;3.40;99.90;;;;;;5031026;28;20456;-70
2021/12/12 06:03:46;;;;;;;8.63;5.03;;;3.40;99.90;;;;;;5031939;28;20468;-73
2021/12/12 06:06:16;;;;;;;9.13;5.80;;;3.40;99.90;;;;;;5013874;28;20448;-72
2021/12/12 06:08:44;;;;;;;13.03;5.07;;;3.40;99.90;;;;;;5030798;28;20451;-72
2021/12/12 06:11:12;;;;;;;10.00;5.30;;;3.40;99.90;;;;;;5031230;28;20475;-72
2021/12/12 06:13:39;;;;;;;10.13;4.67;;;3.40;99.90;;;;;;5031653;28;20470;-72
2021/12/12 06:16:06;;;;;;;7.53;4.80;;;3.40;99.90;;;;;;5013709;28;20460;-71
2021/12/12 06:18:34;;;;;;;8.13;4.10;;;3.40;99.90;;;;;;5014116;28;20459;-73
2021/12/12 06:21:00;;;;;;;6.47;4.20;;;3.40;99.90;;;;;;5029664;28;20491;-72
2021/12/12 06:23:27;;;;;;;8.10;4.70;;;3.40;99.90;;;;;;5030458;28;20926;-72
2021/12/12 06:25:53;;;;;;;5.97;4.37;;;3.40;99.90;;;;;;5037173;28;20537;-72
2021/12/12 06:28:27;;;;;;;8.90;4.57;;;3.40;99.90;;;;;;5013974;28;20525;-72
2021/12/12 06:30:55;;;;;;;9.90;4.00;;;3.40;99.90;;;;;;5013308;28;20625;-72
2021/12/12 06:33:21;;;;;;;5.97;3.07;;;3.40;99.90;;;;;;5031159;28;20475;-72
2021/12/12 06:35:48;;;;;;;4.47;4.07;;;3.40;99.90;;;;;;5010117;28;20456;-72
2021/12/12 06:38:14;;;;;;;10.73;5.37;;;3.40;99.90;;;;;;5011209;28;20459;-72
2021/12/12 06:40:42;;;;;;;11.17;6.27;;;3.40;99.90;;;;;;5003752;28;20490;-72
2021/12/12 06:43:11;;;;;;;21.97;6.63;;;3.40;99.90;;;;;;5026057;28;20504;-72
2021/12/12 06:45:37;;;;;;;13.97;7.07;;;3.40;99.90;;;;;;5004120;28;20908;-71
2021/12/12 06:48:07;;;;;;;7.47;6.03;;;3.40;99.90;;;;;;5033356;28;20536;-72
2021/12/12 06:50:36;;;;;;;13.57;5.07;;;3.40;99.90;;;;;;5031240;28;20458;-73
2021/12/12 06:53:02;;;;;;;9.17;5.17;;;3.40;99.90;;;;;;5012423;28;20537;-72
2021/12/12 06:55:29;;;;;;;9.83;4.93;;;3.40;99.90;;;;;;5013289;28;20522;-72
2021/12/12 06:57:55;;;;;;;8.20;4.13;;;3.50;99.90;;;;;;5024565;28;20538;-72
2021/12/12 07:00:24;;;;;;;10.17;5.07;;;3.50;99.90;;;;;;5016869;28;20519;-72
2021/12/12 07:02:50;;;;;;;9.50;5.13;;;3.50;99.90;;;;;;5012885;28;20542;-71
2021/12/12 07:05:20;;;;;;;10.97;5.57;;;3.50;99.90;;;;;;5012621;28;20439;-73
2021/12/12 07:07:48;;;;;;;9.93;5.40;;;3.50;99.90;;;;;;5030471;28;20490;-73
2021/12/12 07:10:15;;;;;;;10.40;6.20;;;3.50;99.90;;;;;;5010392;28;20547;-72
2021/12/12 07:12:42;;;;;;;7.80;4.10;;;3.50;99.90;;;;;;5002486;28;20498;-73
2021/12/12 07:15:10;;;;;;;7.73;4.73;;;3.50;99.90;;;;;;5011979;28;20543;-70
2021/12/12 07:17:40;;;;;;;8.97;4.87;;;3.50;99.90;;;;;;5013089;28;20459;-72
2021/12/12 07:20:11;;;;;;;8.10;4.07;;;3.50;99.90;;;;;;5012588;28;20463;-72
2021/12/12 07:22:37;;;;;;;6.60;3.77;;;3.50;99.90;;;;;;5012134;28;20459;-73
2021/12/12 07:25:05;;;;;;;12.90;5.83;;;3.50;99.90;;;;;;5011837;28;20466;-71
2021/12/12 07:27:31;;;;;;;6.00;3.40;;;3.50;99.90;;;;;;5030821;28;20235;-73
2021/12/12 07:29:58;;;;;;;3.03;2.50;;;3.50;99.90;;;;;;5012574;28;20467;-72
2021/12/12 07:32:26;;;;;;;5.17;2.70;;;3.50;99.90;;;;;;5012636;28;20220;-73
2021/12/12 07:34:52;;;;;;;7.27;3.63;;;3.50;99.90;;;;;;5011774;28;20476;-73
2021/12/12 07:37:18;;;;;;;6.20;3.67;;;3.50;99.90;;;;;;5012747;28;20451;-71
2021/12/12 07:39:45;;;;;;;9.10;5.50;;;3.50;99.90;;;;;;5028562;28;20459;-71
2021/12/12 07:42:13;;;;;;;7.40;4.50;;;3.60;99.90;;;;;;5019834;28;20526;-72
2021/12/12 07:44:40;;;;;;;5.57;3.40;;;3.60;99.90;;;;;;5029269;28;20463;-69
2021/12/12 07:47:08;;;;;;;5.97;3.60;;;3.60;99.90;;;;;;5029645;28;20469;-73
2021/12/12 07:49:38;;;;;;;5.57;3.20;;;3.60;99.90;;;;;;5028779;28;20461;-72
2021/12/12 07:52:08;;;;;;;5.73;4.10;;;3.60;99.90;;;;;;5022894;28;20483;-70
2021/12/12 07:54:35;;;;;;;5.50;3.70;;;3.60;99.90;;;;;;5028865;28;20471;-72
2021/12/12 07:57:01;;;;;;;5.27;3.60;;;3.60;99.90;;;;;;5011397;28;20443;-72
2021/12/12 07:59:28;;;;;;;5.57;4.03;;;3.60;99.90;;;;;;5029131;28;20534;-71
2021/12/12 08:01:53;;;;;;;4.50;3.23;;;3.60;99.90;;;;;;5011328;28;20483;-71
2021/12/12 08:04:25;;;;;;;4.80;4.00;;;3.60;99.90;;;;;;5012071;28;20486;-72
2021/12/12 08:06:51;;;;;;;8.43;4.23;;;3.60;99.90;;;;;;5011290;28;20251;-74
2021/12/12 08:09:18;;;;;;;31.83;13.77;;;3.60;99.90;;;;;;5011675;28;20444;-72
2021/12/12 08:11:45;;;;;;;52.30;24.27;;;3.60;99.90;;;;;;5012178;28;20455;-72
2021/12/12 08:14:15;;;;;;;88.73;39.00;;;3.60;99.90;;;;;;4995485;28;20472;-74
2021/12/12 08:16:41;;;;;;;72.23;35.73;;;3.70;99.90;;;;;;4994944;28;20455;-72
2021/12/12 08:19:08;;;;;;;55.60;26.60;;;3.70;99.90;;;;;;5027661;28;20448;-72
2021/12/12 08:21:35;;;;;;;39.30;21.50;;;3.70;99.90;;;;;;5028722;28;20490;-71
2021/12/12 08:24:08;;;;;;;26.80;16.90;;;3.70;99.90;;;;;;5016737;28;20538;-71
2021/12/12 08:26:37;;;;;;;27.73;13.93;;;3.70;99.90;;;;;;5011877;28;20475;-71
2021/12/12 08:29:08;;;;;;;18.53;10.97;;;3.70;99.90;;;;;;5011694;28;20486;-72
2021/12/12 08:31:34;;;;;;;16.90;9.37;;;3.70;99.90;;;;;;4994321;28;20462;-71
2021/12/12 08:34:01;;;;;;;11.90;8.27;;;3.70;99.90;;;;;;5025024;28;20519;-71
2021/12/12 08:36:27;;;;;;;10.33;6.20;;;3.70;99.90;;;;;;4996020;28;20460;-71
2021/12/12 08:38:53;;;;;;;12.43;6.07;;;3.70;99.90;;;;;;5013487;28;20481;-71
2021/12/12 08:41:20;;;;;;;12.10;5.30;;;3.70;99.90;;;;;;5023201;28;20447;-68
2021/12/12 08:43:46;;;;;;;8.63;5.20;;;3.70;99.90;;;;;;5015964;28;20237;-70
2021/12/12 08:46:15;;;;;;;14.27;4.30;;;3.70;99.90;;;;;;5014562;28;20542;-71
2021/12/12 08:48:48;;;;;;;5.10;3.70;;;3.80;99.90;;;;;;5015531;28;20472;-71
2021/12/12 08:51:22;;;;;;;11.87;3.70;;;3.80;99.90;;;;;;5014483;28;20443;-72
2021/12/12 08:53:51;;;;;;;4.43;2.70;;;3.80;99.90;;;;;;4998993;28;20542;-72
2021/12/12 08:56:30;;;;;;;3.30;2.43;;;3.80;99.90;;;;;;5015348;28;20463;-72
2021/12/12 08:58:59;;;;;;;6.33;2.43;;;3.80;99.90;;;;;;5015059;28;20462;-72
2021/12/12 09:01:25;;;;;;;3.07;1.70;;;3.80;99.90;;;;;;5013164;28;21013;-72
2021/12/12 09:03:58;;;;;;;3.00;1.43;;;3.80;99.90;;;;;;5033077;28;20556;-72
2021/12/12 09:06:31;;;;;;;2.40;1.80;;;3.80;99.90;;;;;;5031384;28;20451;-70
2021/12/12 09:09:05;;;;;;;2.10;1.90;;;3.80;99.90;;;;;;5032380;28;20534;-73
2021/12/12 09:11:36;;;;;;;3.10;1.60;;;3.80;99.90;;;;;;5032973;28;20496;-71
2021/12/12 09:14:20;;;;;;;6.43;2.80;;;3.80;99.90;;;;;;5034184;28;20470;-72
2021/12/12 09:16:54;;;;;;;2.93;2.60;;;3.80;99.90;;;;;;5051609;28;20529;-72
2021/12/12 09:19:25;;;;;;;4.97;1.73;;;3.90;99.90;;;;;;5022331;28;20451;-71
2021/12/12 09:21:54;;;;;;;3.17;1.70;;;3.90;99.90;;;;;;5007620;28;21022;-73
2021/12/12 09:24:56;;;;;;;2.90;1.87;;;3.80;99.90;;;;;;5030775;28;20459;-70
2021/12/12 09:27:25;;;;;;;6.13;2.43;;;3.90;99.90;;;;;;5016249;28;20508;-73
2021/12/12 09:29:52;;;;;;;3.87;1.77;;;3.90;99.90;;;;;;5031139;28;20451;-71
2021/12/12 09:32:27;;;;;;;7.77;2.73;;;3.90;99.90;;;;;;5031914;28;20530;-72
2021/12/12 09:35:08;;;;;;;1.93;1.60;;;3.90;99.90;;;;;;5014441;28;20899;-72
2021/12/12 09:37:43;;;;;;;1.80;1.67;;;3.90;99.90;;;;;;5030344;28;21072;-73
2021/12/12 09:40:25;;;;;;;3.37;2.30;;;3.90;99.90;;;;;;5013398;28;20538;-72
2021/12/12 09:42:59;;;;;;;3.67;2.10;;;3.90;99.90;;;;;;5026829;28;20509;-72
2021/12/12 09:45:37;;;;;;;5.17;2.00;;;4.00;99.90;;;;;;5014024;28;20470;-72
2021/12/12 09:51:14;;;;;;;3.60;2.20;;;4.00;99.90;;;;;;5030648;28;20463;-72
2021/12/12 09:54:02;;;;;;;2.40;2.20;;;4.00;99.90;;;;;;4997861;28;20539;-72
2021/12/12 09:56:56;;;;;;;5.60;4.70;;;4.00;99.90;;;;;;5012233;28;20486;-72
2021/12/12 10:00:03;;;;;;;3.30;3.00;;;4.10;99.90;;;;;;5009497;28;20461;-72
2021/12/12 10:02:41;;;;;;;6.77;2.33;;;4.10;99.90;;;;;;4996856;28;20456;-75
2021/12/12 10:05:50;;;;;;;4.30;2.00;;;4.10;99.90;;;;;;5029605;28;20513;-73
2021/12/12 10:08:55;;;;;;;2.53;2.33;;;4.10;99.90;;;;;;5000936;28;20526;-72
2021/12/12 10:11:23;;;;;;;3.20;2.63;;;4.10;99.90;;;;;;4964832;28;20459;-72
2021/12/12 10:14:11;;;;;;;3.10;2.50;;;4.10;99.90;;;;;;5029764;28;20467;-73
2021/12/12 10:16:39;;;;;;;2.90;2.57;;;4.10;99.90;;;;;;5012811;28;20459;-72
2021/12/12 10:19:34;;;;;;;4.00;1.83;;;4.10;99.90;;;;;;5029171;28;20512;-73
2021/12/12 10:22:08;;;;;;;3.20;2.00;;;4.20;99.90;;;;;;5013177;28;20463;-73
2021/12/12 10:24:39;;;;;;;3.60;1.70;;;4.20;99.90;;;;;;5040503;28;20469;-72
2021/12/12 10:27:29;;;;;;;3.70;1.70;;;4.20;99.90;;;;;;5012653;28;20526;-73
2021/12/12 10:30:17;;;;;;;3.33;1.47;;;4.20;99.90;;;;;;5029965;28;20459;-73
2021/12/12 10:33:03;;;;;;;2.33;1.60;;;4.20;99.90;;;;;;5028975;28;20455;-72
2021/12/12 10:36:05;;;;;;;3.80;2.47;;;4.30;99.90;;;;;;5019593;28;20503;-72
2021/12/12 10:38:52;;;;;;;3.10;2.40;;;4.30;99.90;;;;;;4969508;28;20826;-73
2021/12/12 10:41:27;;;;;;;9.33;4.80;;;4.30;99.90;;;;;;5029425;28;20509;-73
2021/12/12 10:44:04;;;;;;;14.80;6.30;;;4.30;99.90;;;;;;5029304;28;20962;-72
2021/12/12 10:46:43;;;;;;;6.33;3.47;;;4.30;99.90;;;;;;5029886;28;20443;-72
2021/12/12 10:49:31;;;;;;;4.47;2.10;;;4.40;99.90;;;;;;5030852;28;20458;-73
2021/12/12 10:52:10;;;;;;;9.43;2.17;;;4.40;99.90;;;;;;5030140;28;20491;-72
2021/12/12 10:54:47;;;;;;;4.03;2.37;;;4.40;99.90;;;;;;4997985;28;20470;-72
2021/12/12 10:57:21;;;;;;;11.13;2.40;;;4.40;99.90;;;;;;5012777;28;20451;-70
2021/12/12 11:00:00;;;;;;;1.80;1.63;;;4.50;99.90;;;;;;5030583;28;20451;-72
2021/12/12 11:02:32;;;;;;;2.23;2.00;;;4.50;99.90;;;;;;4995990;28;20557;-71
2021/12/12 11:05:04;;;;;;;2.67;1.77;;;4.50;99.90;;;;;;5017903;28;20464;-73
2021/12/12 11:07:37;;;;;;;5.80;2.10;;;4.50;99.90;;;;;;5011810;28;20444;-71
2021/12/12 11:10:06;;;;;;;3.03;1.93;;;4.50;99.90;;;;;;5015117;28;20454;-72
2021/12/12 11:13:01;;;;;;;3.37;2.00;;;4.50;99.90;;;;;;5012115;28;20987;-72
2021/12/12 11:16:00;;;;;;;2.13;1.80;;;4.60;99.90;;;;;;4995915;28;20455;-72
2021/12/12 11:18:45;;;;;;;3.47;2.10;;;4.60;99.90;;;;;;5022136;28;20447;-71
2021/12/12 11:21:35;;;;;;;1.90;1.80;;;4.70;99.90;;;;;;5027771;28;20447;-71
2021/12/12 11:24:11;;;;;;;4.63;2.40;;;4.70;99.90;;;;;;5022529;28;20883;-71
2021/12/12 11:26:57;;;;;;;10.67;5.67;;;4.60;99.90;;;;;;4996027;28;20451;-73
2021/12/12 11:29:39;;;;;;;14.40;7.07;;;4.70;99.90;;;;;;5027745;28;20447;-72
2021/12/12 11:32:09;;;;;;;12.73;3.83;;;4.70;99.90;;;;;;5026675;28;20455;-70
2021/12/12 11:34:36;;;;;;;4.47;2.10;;;4.70;99.90;;;;;;5011571;28;20463;-71
2021/12/12 11:37:25;;;;;;;5.70;3.23;;;4.70;99.90;;;;;;5028958;28;20562;-72
2021/12/12 11:40:06;;;;;;;6.33;3.97;;;4.70;99.90;;;;;;5029218;28;20455;-72
2021/12/12 11:43:01;;;;;;;9.83;3.40;;;4.70;99.90;;;;;;5027035;28;21013;-71
2021/12/12 11:45:32;;;;;;;5.43;3.20;;;4.80;99.90;;;;;;5001764;28;20479;-72
2021/12/12 11:48:12;;;;;;;2.83;2.37;;;4.80;99.90;;;;;;5009129;28;20447;-72
2021/12/12 11:51:14;;;;;;;4.80;2.60;;;4.80;99.90;;;;;;5010712;28;20836;-72
2021/12/12 11:54:00;;;;;;;4.00;2.10;;;4.80;99.90;;;;;;5012146;28;20478;-71
2021/12/12 11:56:45;;;;;;;4.17;1.80;;;4.80;99.90;;;;;;5028934;28;20440;-71
2021/12/12 11:59:17;;;;;;;5.73;1.80;;;4.90;99.90;;;;;;5011538;28;20505;-71
2021/12/12 12:01:49;;;;;;;4.30;1.90;;;4.90;99.90;;;;;;5028421;28;20506;-76
2021/12/12 12:04:27;;;;;;;3.37;2.20;;;4.90;99.90;;;;;;5028088;28;20814;-71
2021/12/12 12:07:04;;;;;;;1.90;1.60;;;5.00;99.90;;;;;;5028058;28;20443;-73
2021/12/12 12:09:53;;;;;;;2.37;1.33;;;5.00;99.90;;;;;;5029069;28;20450;-71
2021/12/12 12:12:28;;;;;;;4.57;1.67;;;5.00;99.90;;;;;;5015605;28;20479;-70
2021/12/12 12:15:05;;;;;;;3.27;1.80;;;5.00;99.90;;;;;;5015333;28;20541;-71
2021/12/12 12:17:51;;;;;;;3.83;1.90;;;5.00;99.90;;;;;;5016094;28;20497;-72
2021/12/12 12:20:25;;;;;;;2.50;1.87;;;5.00;99.90;;;;;;5032439;28;20447;-70
2021/12/12 12:23:01;;;;;;;5.00;2.30;;;5.00;99.90;;;;;;5008268;28;20466;-72
2021/12/12 12:26:50;;;;;;;5.83;2.20;;;5.10;99.90;;;;;;5011891;28;20459;-71
2021/12/12 12:28:17;;;;;;;5.50;1.93;;;5.10;99.90;;;;;;5012342;28;20470;-73
2021/12/12 12:31:02;;;;;;;6.33;2.30;;;5.10;99.90;;;;;;5009487;28;20459;-71
2021/12/12 12:34:05;;;;;;;13.83;6.27;;;5.10;99.90;;;;;;5014368;28;20696;-73
2021/12/12 12:37:08;;;;;;;12.37;7.33;;;5.10;99.90;;;;;;5012590;28;20506;-72
2021/12/12 12:40:09;;;;;;;8.17;4.90;;;5.10;99.90;;;;;;5012305;28;20448;-72
2021/12/12 12:43:05;;;;;;;15.10;6.50;;;5.20;99.90;;;;;;5029676;28;20542;-71
2021/12/12 12:46:00;;;;;;;15.17;6.90;;;5.20;99.90;;;;;;5036160;28;20545;-72
2021/12/12 12:48:48;;;;;;;18.83;8.47;;;5.20;99.90;;;;;;5029052;28;20961;-72
2021/12/12 12:51:37;;;;;;;102.07;33.07;;;5.20;99.90;;;;;;5030588;28;20577;-75
2021/12/12 12:54:21;;;;;;;47.70;19.87;;;5.20;99.90;;;;;;5025898;28;20470;-71
2021/12/12 12:57:09;;;;;;;31.20;12.20;;;5.30;99.90;;;;;;4995564;28;20498;-72
2021/12/12 12:59:46;;;;;;;15.30;7.57;;;5.30;99.90;;;;;;5029935;28;20550;-72
2021/12/12 13:02:17;;;;;;;10.47;6.20;;;5.30;99.90;;;;;;5009922;28;20458;-71
2021/12/12 13:05:05;;;;;;;7.77;5.13;;;5.30;99.90;;;;;;5028773;28;20538;-72
2021/12/12 13:08:21;;;;;;;6.03;3.67;;;5.30;99.90;;;;;;5011141;28;20442;-72
2021/12/12 13:10:51;;;;;;;6.60;3.57;;;5.30;99.90;;;;;;4980678;28;20500;-71
2021/12/12 13:13:28;;;;;;;4.57;2.93;;;5.30;99.90;;;;;;5029951;28;20471;-71
2021/12/12 13:16:00;;;;;;;7.33;2.90;;;5.40;99.90;;;;;;5028629;28;20469;-72
2021/12/12 13:18:54;;;;;;;4.90;3.10;;;5.40;99.90;;;;;;5013679;28;20540;-73
2021/12/12 13:21:26;;;;;;;2.40;2.00;;;5.40;99.90;;;;;;5009787;28;20449;-74
2021/12/12 13:24:12;;;;;;;2.97;2.13;;;5.40;99.90;;;;;;5030034;28;20488;-72
2021/12/12 13:27:11;;;;;;;3.40;2.03;;;5.40;99.90;;;;;;5032032;28;20459;-73
2021/12/12 13:30:07;;;;;;;3.00;2.00;;;5.40;99.90;;;;;;5013186;28;20483;-71
2021/12/12 13:32:45;;;;;;;1.87;1.70;;;5.40;99.90;;;;;;5030102;28;20451;-72
2021/12/12 13:35:42;;;;;;;1.93;1.53;;;5.40;99.90;;;;;;5030742;28;20497;-70
2021/12/12 13:38:19;;;;;;;2.30;1.80;;;5.50;99.90;;;;;;5012649;28;20467;-72
2021/12/12 13:41:21;;;;;;;3.80;2.70;;;5.50;99.90;;;;;;5013744;28;20463;-71
2021/12/12 13:44:08;;;;;;;5.00;3.60;;;5.50;99.90;;;;;;5028055;28;20520;-73
2021/12/12 13:46:53;;;;;;;5.00;4.27;;;5.50;99.90;;;;;;5023801;28;20518;-71
2021/12/12 13:49:35;;;;;;;4.73;3.70;;;5.50;99.90;;;;;;5028543;28;20451;-72
2021/12/12 13:52:12;;;;;;;4.97;3.73;;;5.50;99.90;;;;;;5008387;28;20455;-73
2021/12/12 13:55:00;;;;;;;3.40;2.50;;;5.50;99.90;;;;;;4993049;28;20835;-72